createdAt,value
2019-01-28T00:00:14.889Z,98750.20
2019-01-28T00:01:18.465Z,98753.50
2019-01-28T00:02:24.493Z,98752.66
2019-01-28T00:03:26.545Z,98750.44
2019-01-28T00:04:33.209Z,98751.31
2019-01-28T00:05:37.254Z,98753.22
2019-01-28T00:06:40.113Z,98751.31
2019-01-28T00:07:44.016Z,98755.27
2019-01-28T00:08:44.875Z,98757.20
2019-01-28T00:09:45.745Z,98755.53
2019-01-28T00:10:52.984Z,98752.21
2019-01-28T00:11:55.119Z,98752.99
2019-01-28T00:12:57.903Z,98747.31
2019-01-28T00:14:02.589Z,98749.84
2019-01-28T00:15:08.542Z,98749.11
2019-01-28T00:16:10.809Z,98754.27
2019-01-28T00:17:16.459Z,98749.03
2019-01-28T00:18:24.904Z,98748.76
2019-01-28T00:19:25.751Z,98746.92
2019-01-28T00:20:26.615Z,98747.69
2019-01-28T00:21:30.100Z,98745.95
2019-01-28T00:22:31.020Z,98748.41
2019-01-28T00:23:31.906Z,98745.07
2019-01-28T00:24:38.482Z,98744.80
2019-01-28T00:25:40.427Z,98746.90
2019-01-28T00:26:41.303Z,98746.28
2019-01-28T00:28:01.437Z,98743.73
2019-01-28T00:29:05.213Z,98740.92
2019-01-28T00:30:12.959Z,98747.09
2019-01-28T00:31:17.183Z,98742.56
2019-01-28T00:32:27.396Z,98741.39
2019-01-28T00:33:28.945Z,98741.22
2019-01-28T00:34:30.974Z,98738.77
2019-01-28T00:35:38.289Z,98748.96
2019-01-28T00:36:40.738Z,98740.60
2019-01-28T00:37:48.584Z,98743.14
2019-01-28T00:39:04.491Z,98738.41
2019-01-28T00:40:08.467Z,98744.80
2019-01-28T00:41:10.491Z,98733.19
2019-01-28T00:42:21.108Z,98730.97
2019-01-28T00:43:23.906Z,98733.33
2019-01-28T00:44:24.762Z,98732.59
2019-01-28T00:45:31.585Z,98728.86
2019-01-28T00:46:35.292Z,98723.00
2019-01-28T00:47:39.987Z,98719.27
2019-01-28T00:48:40.897Z,98723.81
2019-01-28T00:49:45.566Z,98718.03
2019-01-28T00:50:49.802Z,98716.48
2019-01-28T00:51:52.575Z,98715.44
2019-01-28T00:52:55.331Z,98712.33
2019-01-28T00:53:56.255Z,98707.20
2019-01-28T00:54:59.093Z,98714.33
2019-01-28T00:55:59.969Z,98711.73
2019-01-28T00:57:02.909Z,98711.98
2019-01-28T00:58:05.683Z,98713.98
2019-01-28T00:59:06.609Z,98704.84
2019-01-28T01:00:25.051Z,98704.50
2019-01-28T01:01:29.953Z,98707.72
2019-01-28T01:02:42.006Z,98706.91
2019-01-28T01:03:45.471Z,98703.64
2019-01-28T01:04:47.576Z,98698.88
2019-01-28T01:05:53.977Z,98696.17
2019-01-28T01:07:00.057Z,98694.88
2019-01-28T01:08:04.755Z,98699.73
2019-01-28T01:09:06.031Z,98699.00
2019-01-28T01:10:13.287Z,98688.91
2019-01-28T01:11:25.499Z,98696.79
2019-01-28T01:12:28.289Z,98693.15
2019-01-28T01:13:31.296Z,98693.20
2019-01-28T01:14:34.081Z,98697.22
2019-01-28T01:15:36.881Z,98696.48
2019-01-28T01:16:43.411Z,98698.66
2019-01-28T01:17:45.423Z,98696.05
2019-01-28T01:18:48.232Z,98693.34
2019-01-28T01:19:55.741Z,98687.69
2019-01-28T01:20:56.675Z,98684.54
2019-01-28T01:22:03.610Z,98681.81
2019-01-28T01:23:04.551Z,98688.38
2019-01-28T01:24:08.995Z,98688.80
2019-01-28T01:25:15.887Z,98694.81
2019-01-28T01:26:17.039Z,98690.75
2019-01-28T01:27:19.895Z,98688.45
2019-01-28T01:28:25.444Z,98686.79
2019-01-28T01:29:28.465Z,98687.88
2019-01-28T01:30:29.333Z,98683.97
2019-01-28T01:31:34.045Z,98689.45
2019-01-28T01:32:38.733Z,98693.47
2019-01-28T01:33:52.360Z,98696.30
2019-01-28T01:34:52.517Z,98695.97
2019-01-28T01:35:54.803Z,98696.14
2019-01-28T01:36:59.511Z,98702.25
2019-01-28T01:38:00.385Z,98697.84
2019-01-28T01:39:01.285Z,98706.72
2019-01-28T01:40:07.230Z,98698.92
2019-01-28T01:41:11.921Z,98694.97
2019-01-28T01:42:21.835Z,98704.41
2019-01-28T01:43:26.549Z,98704.60
2019-01-28T01:44:27.413Z,98707.80
2019-01-28T01:45:32.999Z,98702.96
2019-01-28T01:46:33.859Z,98699.41
2019-01-28T01:47:36.675Z,98700.16
2019-01-28T01:48:41.363Z,98706.78
2019-01-28T01:49:45.073Z,98705.77
2019-01-28T01:50:47.148Z,98707.17
2019-01-28T01:51:53.965Z,98707.56
2019-01-28T01:53:03.266Z,98706.83
2019-01-28T01:54:09.633Z,98710.61
2019-01-28T01:55:21.262Z,98710.24
2019-01-28T01:57:48.367Z,98702.09
2019-01-28T01:58:56.963Z,98705.25
2019-01-28T01:59:55.710Z,98706.44
2019-01-28T02:00:58.432Z,98698.39
2019-01-28T02:02:03.761Z,98695.84
2019-01-28T02:03:06.525Z,98688.98
2019-01-28T02:04:07.425Z,98681.99
2019-01-28T02:05:17.835Z,98684.03
2019-01-28T02:06:20.046Z,98680.74
2019-01-28T02:07:27.084Z,98678.06
2019-01-28T02:08:29.847Z,98680.59
2019-01-28T02:09:33.861Z,98676.66
2019-01-28T02:10:34.729Z,98676.47
2019-01-28T02:11:39.391Z,98683.73
2019-01-28T02:12:43.457Z,98679.59
2019-01-28T02:13:44.273Z,98682.20
2019-01-28T02:14:49.082Z,98674.58
2019-01-28T02:15:50.062Z,98679.77
2019-01-28T02:16:55.095Z,98681.63
2019-01-28T02:17:53.745Z,98682.42
2019-01-28T02:18:56.027Z,98679.72
2019-01-28T02:19:58.783Z,98686.88
2019-01-28T02:21:01.567Z,98680.68
2019-01-28T02:22:10.052Z,98677.41
2019-01-28T02:23:13.032Z,98678.06
2019-01-28T02:24:15.787Z,98676.58
2019-01-28T02:25:17.958Z,98678.62
2019-01-28T02:26:21.825Z,98674.31
2019-01-28T02:27:29.050Z,98678.88
2019-01-28T02:28:31.223Z,98680.23
2019-01-28T02:29:34.955Z,98682.39
2019-01-28T02:30:38.745Z,98672.39
2019-01-28T02:31:39.722Z,98679.70
2019-01-28T02:33:06.829Z,98683.84
2019-01-28T02:33:49.101Z,98682.00
2019-01-28T02:34:52.106Z,98684.55
2019-01-28T02:35:54.866Z,98680.42
2019-01-28T02:36:58.293Z,98677.91
2019-01-28T02:38:01.745Z,98671.44
2019-01-28T02:39:09.478Z,98675.97
2019-01-28T02:40:13.122Z,98678.53
2019-01-28T02:41:15.899Z,98682.73
2019-01-28T02:42:36.106Z,98679.52
2019-01-28T02:43:43.135Z,98683.70
2019-01-28T02:44:41.761Z,98686.47
2019-01-28T02:45:44.534Z,98678.30
2019-01-28T02:46:46.716Z,98679.70
2019-01-28T02:47:52.490Z,98679.86
2019-01-28T02:48:54.744Z,98683.20
2019-01-28T02:49:57.458Z,98678.16
2019-01-28T02:51:05.396Z,98679.09
2019-01-28T02:52:10.133Z,98678.49
2019-01-28T02:53:10.989Z,98686.02
2019-01-28T02:54:13.788Z,98690.98
2019-01-28T02:55:21.018Z,98690.35
2019-01-28T02:56:21.218Z,98681.11
2019-01-28T02:57:22.115Z,98683.53
2019-01-28T02:58:28.905Z,98686.49
2019-01-28T02:59:35.253Z,98693.13
2019-01-28T03:00:41.997Z,98697.59
2019-01-28T03:01:54.130Z,98696.30
2019-01-28T03:03:02.200Z,98699.66
2019-01-28T03:04:04.971Z,98698.42
2019-01-28T03:05:07.420Z,98696.84
2019-01-28T03:06:08.285Z,98696.63
2019-01-28T03:07:11.058Z,98700.87
2019-01-28T03:08:15.244Z,98690.95
2019-01-28T03:09:16.114Z,98691.88
2019-01-28T03:10:25.122Z,98694.47
2019-01-28T03:11:30.229Z,98698.01
2019-01-28T03:12:35.107Z,98691.52
2019-01-28T03:13:40.776Z,98693.72
2019-01-28T03:14:44.546Z,98690.80
2019-01-28T03:15:52.049Z,98697.22
2019-01-28T03:16:57.162Z,98697.02
2019-01-28T03:18:06.997Z,98699.81
2019-01-28T03:19:11.217Z,98699.66
2019-01-28T03:20:14.749Z,98700.99
2019-01-28T03:21:21.437Z,98706.63
2019-01-28T03:22:23.580Z,98701.70
2019-01-28T03:23:29.243Z,98702.13
2019-01-28T03:24:31.945Z,98699.75
2019-01-28T03:25:44.962Z,98694.79
2019-01-28T03:26:47.746Z,98695.58
2019-01-28T03:27:48.606Z,98688.94
2019-01-28T03:28:53.316Z,98695.25
2019-01-28T03:29:56.129Z,98695.77
2019-01-28T03:30:58.917Z,98693.98
2019-01-28T03:32:01.688Z,98698.75
2019-01-28T03:33:04.705Z,98698.05
2019-01-28T03:34:07.561Z,98695.19
2019-01-28T03:35:14.861Z,98695.61
2019-01-28T03:36:19.562Z,98700.38
2019-01-28T03:37:22.324Z,98701.39
2019-01-28T03:38:23.181Z,98703.83
2019-01-28T03:39:24.035Z,98708.71
2019-01-28T03:40:26.840Z,98706.39
2019-01-28T03:41:31.502Z,98711.46
2019-01-28T03:42:38.648Z,98714.65
2019-01-28T03:43:43.427Z,98716.46
2019-01-28T03:44:47.368Z,98714.77
2019-01-28T03:45:52.467Z,98706.19
2019-01-28T03:46:54.666Z,98710.88
2019-01-28T03:47:55.516Z,98711.07
2019-01-28T03:49:01.149Z,98713.91
2019-01-28T03:50:24.737Z,98710.20
2019-01-28T03:51:27.785Z,98705.69
2019-01-28T03:52:30.690Z,98703.31
2019-01-28T03:53:55.362Z,98708.73
2019-01-28T03:55:00.198Z,98706.95
2019-01-28T03:56:01.061Z,98705.56
2019-01-28T03:57:08.047Z,98702.88
2019-01-28T03:58:13.934Z,98703.41
2019-01-28T03:59:21.242Z,98708.68
2019-01-28T04:00:24.508Z,98711.61
2019-01-28T04:01:29.409Z,98709.78
2019-01-28T04:02:30.339Z,98712.28
2019-01-28T04:03:35.026Z,98705.91
2019-01-28T04:04:37.816Z,98711.69
2019-01-28T04:05:43.546Z,98710.99
2019-01-28T04:06:52.990Z,98708.72
2019-01-28T04:07:58.555Z,98707.37
2019-01-28T04:08:59.416Z,98708.93
2019-01-28T04:10:07.853Z,98706.41
2019-01-28T04:11:08.390Z,98715.03
2019-01-28T04:12:09.358Z,98705.30
2019-01-28T04:13:10.225Z,98708.73
2019-01-28T04:14:17.316Z,98701.03
2019-01-28T04:15:25.545Z,98708.06
2019-01-28T04:16:30.700Z,98699.48
2019-01-28T04:17:34.408Z,98698.56
2019-01-28T04:18:41.738Z,98695.07
2019-01-28T04:19:48.238Z,98703.87
2019-01-28T04:20:55.718Z,98695.76
2019-01-28T04:22:04.005Z,98692.13
2019-01-28T04:23:09.567Z,98688.31
2019-01-28T04:24:15.052Z,98688.70
2019-01-28T04:25:17.837Z,98694.30
2019-01-28T04:26:23.124Z,98692.77
2019-01-28T04:27:24.145Z,98696.73
2019-01-28T04:28:26.912Z,98697.69
2019-01-28T04:29:27.896Z,98695.54
2019-01-28T04:30:30.928Z,98702.41
2019-01-28T04:31:31.898Z,98696.22
2019-01-28T04:32:35.759Z,98695.97
2019-01-28T04:33:38.544Z,98696.29
2019-01-28T04:34:39.527Z,98691.99
2019-01-28T04:35:40.390Z,98692.84
2019-01-28T04:36:43.772Z,98695.59
2019-01-28T04:37:49.640Z,98697.48
2019-01-28T04:38:52.384Z,98696.16
2019-01-28T04:39:58.067Z,98710.70
2019-01-28T04:41:05.421Z,98700.42
2019-01-28T04:42:09.092Z,98702.22
2019-01-28T04:43:11.864Z,98697.05
2019-01-28T04:44:14.355Z,98702.98
2019-01-28T04:45:22.562Z,98699.09
2019-01-28T04:46:23.029Z,98700.03
2019-01-28T04:47:25.906Z,98694.75
2019-01-28T04:48:28.705Z,98694.36
2019-01-28T04:49:37.133Z,98689.77
2019-01-28T04:50:38.174Z,98693.50
2019-01-28T04:51:39.125Z,98688.44
2019-01-28T04:52:39.984Z,98690.93
2019-01-28T04:53:40.962Z,98683.65
2019-01-28T04:54:41.977Z,98693.05
2019-01-28T04:55:42.854Z,98688.35
2019-01-28T04:56:43.827Z,98689.20
2019-01-28T04:57:44.790Z,98690.27
2019-01-28T04:58:45.763Z,98684.81
2019-01-28T04:59:46.761Z,98688.08
2019-01-28T05:00:47.633Z,98679.81
2019-01-28T05:01:48.486Z,98680.80
2019-01-28T05:02:49.351Z,98683.29
2019-01-28T05:03:50.186Z,98682.27
2019-01-28T05:04:51.184Z,98681.74
2019-01-28T05:05:52.064Z,98685.77
2019-01-28T05:06:52.932Z,98682.14
2019-01-28T05:07:53.909Z,98681.69
2019-01-28T05:08:54.767Z,98687.14
2019-01-28T05:09:55.760Z,98683.37
2019-01-28T05:10:56.631Z,98677.72
2019-01-28T05:11:57.654Z,98677.80
2019-01-28T05:12:58.646Z,98678.22
2019-01-28T05:13:59.593Z,98679.20
2019-01-28T05:15:00.565Z,98680.16
2019-01-28T05:16:01.573Z,98678.23
2019-01-28T05:17:02.488Z,98671.62
2019-01-28T05:18:03.395Z,98671.52
2019-01-28T05:19:04.247Z,98671.72
2019-01-28T05:20:08.903Z,98680.03
2019-01-28T05:21:09.879Z,98674.98
2019-01-28T05:22:10.746Z,98672.96
2019-01-28T05:23:11.664Z,98674.45
2019-01-28T05:24:12.592Z,98674.73
2019-01-28T05:25:15.069Z,98678.27
2019-01-28T05:26:16.064Z,98669.95
2019-01-28T05:27:17.037Z,98675.34
2019-01-28T05:28:17.903Z,98674.66
2019-01-28T05:29:18.888Z,98672.81
2019-01-28T05:30:23.950Z,98675.56
2019-01-28T05:31:24.836Z,98674.81
2019-01-28T05:32:25.704Z,98675.98
2019-01-28T05:33:26.555Z,98672.07
2019-01-28T05:34:27.412Z,98678.17
2019-01-28T05:35:28.281Z,98678.11
2019-01-28T05:36:29.168Z,98677.66
2019-01-28T05:37:30.030Z,98678.80
2019-01-28T05:38:31.032Z,98675.33
2019-01-28T05:39:31.980Z,98679.34
2019-01-28T05:40:32.856Z,98677.06
2019-01-28T05:41:33.861Z,98679.14
2019-01-28T05:42:34.861Z,98680.01
2019-01-28T05:43:35.834Z,98683.45
2019-01-28T05:44:36.800Z,98681.58
2019-01-28T05:45:37.842Z,98681.52
2019-01-28T05:46:38.828Z,98676.88
2019-01-28T05:47:39.691Z,98684.55
2019-01-28T05:48:40.554Z,98681.27
2019-01-28T05:49:41.684Z,98685.80
2019-01-28T05:50:42.624Z,98681.41
2019-01-28T05:51:43.507Z,98678.60
2019-01-28T05:52:45.266Z,98678.60
2019-01-28T05:53:46.125Z,98672.67
2019-01-28T05:54:47.154Z,98670.48
2019-01-28T05:55:48.149Z,98672.71
2019-01-28T05:56:49.147Z,98671.31
2019-01-28T05:57:50.017Z,98665.20
2019-01-28T05:58:50.866Z,98668.03
2019-01-28T05:59:51.754Z,98668.86
2019-01-28T06:00:52.610Z,98670.86
2019-01-28T06:01:53.592Z,98672.89
2019-01-28T06:02:54.583Z,98674.66
2019-01-28T06:03:55.421Z,98673.59
2019-01-28T06:04:56.369Z,98672.80
2019-01-28T06:05:57.204Z,98677.34
2019-01-28T06:06:58.176Z,98680.11
2019-01-28T06:07:59.144Z,98679.95
2019-01-28T06:09:00.010Z,98681.44
2019-01-28T06:10:01.002Z,98685.30
2019-01-28T06:11:01.986Z,98688.16
2019-01-28T06:12:02.964Z,98686.43
2019-01-28T06:13:03.819Z,98686.81
2019-01-28T06:14:04.680Z,98687.86
2019-01-28T06:15:09.258Z,98686.80
2019-01-28T06:16:10.212Z,98691.69
2019-01-28T06:17:12.980Z,98688.72
2019-01-28T06:18:13.970Z,98692.75
2019-01-28T06:19:14.953Z,98697.67
2019-01-28T06:20:20.626Z,98692.31
2019-01-28T06:21:21.608Z,98688.89
2019-01-28T06:22:22.468Z,98692.76
2019-01-28T06:23:23.355Z,98699.62
2019-01-28T06:24:24.252Z,98698.11
2019-01-28T06:25:25.225Z,98702.16
2019-01-28T06:26:26.115Z,98700.65
2019-01-28T06:27:26.988Z,98700.56
2019-01-28T06:28:27.852Z,98699.70
2019-01-28T06:29:28.880Z,98702.20
2019-01-28T06:30:31.546Z,98699.34
2019-01-28T06:31:32.622Z,98702.23
2019-01-28T06:32:33.598Z,98703.05
2019-01-28T06:33:34.456Z,98707.01
2019-01-28T06:34:35.354Z,98701.30
2019-01-28T06:35:36.210Z,98703.47
2019-01-28T06:36:37.081Z,98703.30
2019-01-28T06:37:38.037Z,98705.98
2019-01-28T06:38:38.900Z,98704.40
2019-01-28T06:39:39.911Z,98706.80
2019-01-28T06:40:40.876Z,98709.27
2019-01-28T06:41:41.839Z,98711.78
2019-01-28T06:42:42.805Z,98716.28
2019-01-28T06:43:43.701Z,98714.47
2019-01-28T06:44:44.709Z,98714.63
2019-01-28T06:45:45.708Z,98712.22
2019-01-28T06:46:46.713Z,98718.02
2019-01-28T06:47:47.698Z,98714.90
2019-01-28T06:48:48.600Z,98711.59
2019-01-28T06:49:49.467Z,98721.03
2019-01-28T06:50:50.325Z,98719.25
2019-01-28T06:51:51.186Z,98725.36
2019-01-28T06:52:52.157Z,98724.72
2019-01-28T06:53:53.045Z,98723.70
2019-01-28T06:54:54.004Z,98729.02
2019-01-28T06:55:54.970Z,98729.32
2019-01-28T06:56:55.937Z,98730.66
2019-01-28T06:57:56.902Z,98727.27
2019-01-28T06:58:57.902Z,98729.14
2019-01-28T06:59:58.881Z,98729.89
2019-01-28T07:00:59.844Z,98731.53
2019-01-28T07:02:00.808Z,98733.34
2019-01-28T07:03:02.003Z,98735.70
2019-01-28T07:04:02.971Z,98735.08
2019-01-28T07:05:04.138Z,98735.09
2019-01-28T07:06:05.038Z,98739.27
2019-01-28T07:07:06.147Z,98732.53
2019-01-28T07:08:07.029Z,98731.72
2019-01-28T07:09:08.092Z,98731.62
2019-01-28T07:10:09.754Z,98731.67
2019-01-28T07:11:10.650Z,98732.33
2019-01-28T07:12:11.512Z,98733.67
2019-01-28T07:13:12.383Z,98734.14
2019-01-28T07:14:13.237Z,98727.58
2019-01-28T07:15:16.911Z,98731.73
2019-01-28T07:16:17.914Z,98735.00
2019-01-28T07:17:18.790Z,98733.46
2019-01-28T07:18:19.716Z,98735.45
2019-01-28T07:19:20.721Z,98730.67
2019-01-28T07:20:25.590Z,98730.30
2019-01-28T07:21:26.594Z,98725.00
2019-01-28T07:22:27.602Z,98728.93
2019-01-28T07:23:28.463Z,98728.68
2019-01-28T07:24:29.328Z,98733.41
2019-01-28T07:25:30.190Z,98729.78
2019-01-28T07:26:31.152Z,98732.77
2019-01-28T07:27:32.251Z,98733.88
2019-01-28T07:28:33.169Z,98737.16
2019-01-28T07:29:34.035Z,98738.72
2019-01-28T07:30:35.026Z,98738.20
2019-01-28T07:31:35.988Z,98744.31
2019-01-28T07:32:36.956Z,98746.09
2019-01-28T07:33:37.854Z,98746.80
2019-01-28T07:34:38.726Z,98748.00
2019-01-28T07:35:39.709Z,98750.58
2019-01-28T07:36:40.636Z,98757.13
2019-01-28T07:37:41.510Z,98750.67
2019-01-28T07:38:42.396Z,98757.63
2019-01-28T07:39:43.280Z,98745.49
2019-01-28T07:40:44.153Z,98744.02
2019-01-28T07:41:45.020Z,98751.30
2019-01-28T07:42:45.883Z,98754.83
2019-01-28T07:43:46.885Z,98757.76
2019-01-28T07:44:47.856Z,98760.78
2019-01-28T07:45:48.722Z,98755.28
2019-01-28T07:46:49.703Z,98762.25
2019-01-28T07:47:50.572Z,98766.80
2019-01-28T07:48:51.440Z,98764.63
2019-01-28T07:49:52.323Z,98763.09
2019-01-28T07:50:53.193Z,98758.69
2019-01-28T07:51:54.097Z,98762.47
2019-01-28T07:52:54.946Z,98757.34
2019-01-28T07:53:55.803Z,98758.91
2019-01-28T07:54:56.674Z,98755.42
2019-01-28T07:55:57.529Z,98750.55
2019-01-28T07:56:58.410Z,98747.36
2019-01-28T07:57:59.274Z,98749.91
2019-01-28T07:59:00.157Z,98749.87
2019-01-28T08:00:01.020Z,98753.23
2019-01-28T08:01:02.015Z,98750.30
2019-01-28T08:02:03.117Z,98760.25
2019-01-28T08:03:04.083Z,98757.93
2019-01-28T08:04:05.040Z,98755.64
2019-01-28T08:05:08.611Z,98747.99
2019-01-28T08:06:09.517Z,98745.19
2019-01-28T08:07:10.384Z,98743.80
2019-01-28T08:08:11.258Z,98749.03
2019-01-28T08:09:12.121Z,98750.09
2019-01-28T08:10:15.093Z,98744.27
2019-01-28T08:11:16.016Z,98735.81
2019-01-28T08:12:16.859Z,98733.09
2019-01-28T08:13:17.723Z,98735.36
2019-01-28T08:14:18.585Z,98735.92
2019-01-28T08:15:22.756Z,98729.58
2019-01-28T08:16:23.655Z,98741.73
2019-01-28T08:17:24.554Z,98746.11
2019-01-28T08:18:25.434Z,98746.16
2019-01-28T08:19:26.294Z,98751.33
2019-01-28T08:20:27.162Z,98741.71
2019-01-28T08:21:28.057Z,98745.68
2019-01-28T08:22:28.987Z,98748.02
2019-01-28T08:23:29.953Z,98753.28
2019-01-28T08:24:30.811Z,98755.64
2019-01-28T08:25:31.671Z,98747.95
2019-01-28T08:26:32.720Z,98750.95
2019-01-28T08:27:35.161Z,98752.42
2019-01-28T08:28:36.928Z,98748.18
2019-01-28T08:29:56.152Z,98749.24
2019-01-28T08:30:57.021Z,98749.69
2019-01-28T08:31:57.882Z,98748.18
2019-01-28T08:32:58.754Z,98741.53
2019-01-28T08:33:59.615Z,98751.84
2019-01-28T08:35:00.480Z,98748.61
2019-01-28T08:36:01.346Z,98746.86
2019-01-28T08:37:02.419Z,98750.21
2019-01-28T08:38:03.283Z,98747.81
2019-01-28T08:39:06.745Z,98744.69
2019-01-28T08:40:13.507Z,98756.75
2019-01-28T08:41:14.396Z,98754.52
2019-01-28T08:42:15.242Z,98755.77
2019-01-28T08:43:16.093Z,98751.84
2019-01-28T08:44:16.953Z,98762.06
2019-01-28T08:45:17.899Z,98761.83
2019-01-28T08:46:18.759Z,98763.92
2019-01-28T08:47:19.629Z,98767.53
2019-01-28T08:48:29.995Z,98771.00
2019-01-28T08:50:01.133Z,98770.82
2019-01-28T08:51:22.005Z,98771.36
2019-01-28T08:52:28.191Z,98764.63
2019-01-28T08:53:29.181Z,98767.67
2019-01-28T08:54:30.048Z,98763.41
2019-01-28T08:55:30.990Z,98761.80
2019-01-28T08:56:32.071Z,98762.48
2019-01-28T08:57:32.943Z,98771.52
2019-01-28T08:58:33.799Z,98765.64
2019-01-28T08:59:34.769Z,98769.62
2019-01-28T09:00:37.889Z,98765.87
2019-01-28T09:01:38.797Z,98768.55
2019-01-28T09:02:39.760Z,98771.84
2019-01-28T09:03:40.623Z,98770.66
2019-01-28T09:04:41.484Z,98776.17
2019-01-28T09:05:42.343Z,98781.09
2019-01-28T09:06:43.261Z,98782.67
2019-01-28T09:07:44.228Z,98780.02
2019-01-28T09:08:45.097Z,98781.83
2019-01-28T09:09:45.962Z,98787.06
2019-01-28T09:10:46.828Z,98782.59
2019-01-28T09:11:47.731Z,98791.44
2019-01-28T09:12:48.603Z,98793.20
2019-01-28T09:13:49.459Z,98785.45
2019-01-28T09:14:50.323Z,98777.39
2019-01-28T09:15:51.187Z,98778.95
2019-01-28T09:16:52.085Z,98783.28
2019-01-28T09:17:52.955Z,98778.07
2019-01-28T09:18:53.834Z,98781.02
2019-01-28T09:19:54.693Z,98782.98
2019-01-28T09:20:55.561Z,98781.33
2019-01-28T09:21:56.457Z,98779.27
2019-01-28T09:22:57.345Z,98780.61
2019-01-28T09:23:58.198Z,98783.17
2019-01-28T09:24:59.060Z,98784.79
2019-01-28T09:25:59.923Z,98793.47
2019-01-28T09:27:00.807Z,98790.88
2019-01-28T09:28:01.686Z,98788.77
2019-01-28T09:29:02.645Z,98784.16
2019-01-28T09:30:07.311Z,98781.03
2019-01-28T09:31:08.181Z,98788.59
2019-01-28T09:32:09.181Z,98781.81
2019-01-28T09:33:10.043Z,98781.52
2019-01-28T09:34:10.903Z,98781.27
2019-01-28T09:35:11.755Z,98780.45
2019-01-28T09:36:12.620Z,98779.14
2019-01-28T09:37:14.292Z,98778.51
2019-01-28T09:38:15.257Z,98782.28
2019-01-28T09:39:16.119Z,98779.70
2019-01-28T09:40:28.913Z,98770.47
2019-01-28T09:41:29.813Z,98777.47
2019-01-28T09:42:30.684Z,98771.44
2019-01-28T09:43:31.543Z,98780.23
2019-01-28T09:44:32.511Z,98774.23
2019-01-28T09:45:35.979Z,98774.25
2019-01-28T09:46:36.887Z,98778.34
2019-01-28T09:47:37.754Z,98777.00
2019-01-28T09:48:38.626Z,98773.67
2019-01-28T09:49:39.483Z,98775.39
2019-01-28T09:50:40.344Z,98776.66
2019-01-28T09:51:41.221Z,98772.02
2019-01-28T09:52:42.083Z,98768.19
2019-01-28T09:53:42.938Z,98765.27
2019-01-28T09:54:43.834Z,98771.81
2019-01-28T09:55:44.688Z,98763.18
2019-01-28T09:56:45.545Z,98766.14
2019-01-28T09:57:46.411Z,98762.33
2019-01-28T09:58:47.268Z,98766.59
2019-01-28T09:59:48.159Z,98764.56
2019-01-28T10:00:49.124Z,98761.50
2019-01-28T10:01:49.994Z,98768.75
2019-01-28T10:02:50.856Z,98765.36
2019-01-28T10:03:51.716Z,98763.35
2019-01-28T10:04:52.655Z,98763.56
2019-01-28T10:05:53.471Z,98768.23
2019-01-28T10:06:54.342Z,98769.81
2019-01-28T10:07:55.867Z,98765.40
2019-01-28T10:08:56.734Z,98762.67
2019-01-28T10:09:57.661Z,98761.91
2019-01-28T10:10:58.540Z,98762.71
2019-01-28T10:11:59.412Z,98758.40
2019-01-28T10:13:00.277Z,98761.80
2019-01-28T10:14:01.131Z,98761.02
2019-01-28T10:15:05.141Z,98759.13
2019-01-28T10:16:06.011Z,98758.92
2019-01-28T10:17:06.881Z,98757.58
2019-01-28T10:18:07.747Z,98755.71
2019-01-28T10:19:08.604Z,98752.72
2019-01-28T10:20:18.771Z,98749.45
2019-01-28T10:21:19.641Z,98751.03
2019-01-28T10:22:20.502Z,98748.55
2019-01-28T10:23:21.384Z,98747.91
2019-01-28T10:24:22.230Z,98752.63
2019-01-28T10:25:23.115Z,98747.95
2019-01-28T10:26:23.974Z,98747.78
2019-01-28T10:27:24.843Z,98750.80
2019-01-28T10:28:25.713Z,98753.68
2019-01-28T10:29:26.579Z,98760.44
2019-01-28T10:30:39.024Z,98749.58
2019-01-28T10:31:39.892Z,98750.37
2019-01-28T10:32:40.852Z,98748.05
2019-01-28T10:33:41.713Z,98748.72
2019-01-28T10:34:42.583Z,98744.72
2019-01-28T10:35:43.471Z,98746.48
2019-01-28T10:36:44.354Z,98739.70
2019-01-28T10:37:45.204Z,98739.08
2019-01-28T10:38:46.076Z,98743.22
2019-01-28T10:39:46.933Z,98733.32
2019-01-28T10:40:47.834Z,98734.90
2019-01-28T10:41:48.696Z,98737.59
2019-01-28T10:42:49.590Z,98737.59
2019-01-28T10:43:50.448Z,98736.23
2019-01-28T10:44:51.303Z,98729.00
2019-01-28T10:45:52.207Z,98728.02
2019-01-28T10:46:53.061Z,98730.00
2019-01-28T10:47:53.919Z,98727.81
2019-01-28T10:48:54.777Z,98725.19
2019-01-28T10:49:55.640Z,98729.08
2019-01-28T10:50:56.537Z,98723.54
2019-01-28T10:51:58.172Z,98717.38
2019-01-28T10:52:59.213Z,98714.28
2019-01-28T10:54:00.071Z,98712.70
2019-01-28T10:55:00.932Z,98716.02
2019-01-28T10:56:01.824Z,98718.80
2019-01-28T10:57:02.793Z,98713.87
2019-01-28T10:58:03.659Z,98710.09
2019-01-28T10:59:04.511Z,98702.50
2019-01-28T11:00:17.949Z,98704.14
2019-01-28T11:01:18.973Z,98706.45
2019-01-28T11:02:19.847Z,98704.59
2019-01-28T11:03:20.709Z,98698.52
2019-01-28T11:04:21.583Z,98699.95
2019-01-28T11:05:22.479Z,98702.98
2019-01-28T11:06:23.575Z,98694.30
2019-01-28T11:07:24.492Z,98700.33
2019-01-28T11:08:25.557Z,98693.83
2019-01-28T11:09:26.514Z,98693.83
2019-01-28T11:10:27.906Z,98700.83
2019-01-28T11:11:28.812Z,98696.51
2019-01-28T11:12:29.635Z,98691.91
2019-01-28T11:13:30.530Z,98692.45
2019-01-28T11:14:31.552Z,98692.73
2019-01-28T11:15:32.596Z,98697.33
2019-01-28T11:16:33.564Z,98694.08
2019-01-28T11:17:34.548Z,98701.97
2019-01-28T11:18:35.524Z,98698.41
2019-01-28T11:19:36.491Z,98694.56
2019-01-28T11:20:37.404Z,98698.93
2019-01-28T11:21:38.260Z,98689.66
2019-01-28T11:22:39.156Z,98688.22
2019-01-28T11:23:40.021Z,98687.05
2019-01-28T11:24:42.771Z,98689.19
2019-01-28T11:25:43.665Z,98689.44
2019-01-28T11:26:44.588Z,98690.81
2019-01-28T11:27:45.438Z,98690.81
2019-01-28T11:28:46.455Z,98681.75
2019-01-28T11:29:47.484Z,98684.17
2019-01-28T11:30:55.233Z,98680.20
2019-01-28T11:31:56.101Z,98684.66
2019-01-28T11:32:57.030Z,98683.73
2019-01-28T11:33:58.168Z,98683.34
2019-01-28T11:34:59.237Z,98687.94
2019-01-28T11:36:05.005Z,98678.84
2019-01-28T11:37:02.890Z,98679.33
2019-01-28T11:38:03.856Z,98678.80
2019-01-28T11:39:05.807Z,98685.33
2019-01-28T11:40:10.637Z,98682.17
2019-01-28T11:41:11.645Z,98690.39
2019-01-28T11:42:12.617Z,98690.70
2019-01-28T11:43:13.419Z,98693.66
2019-01-28T11:44:14.328Z,98686.64
2019-01-28T11:45:18.863Z,98690.63
2019-01-28T11:46:19.816Z,98694.75
2019-01-28T11:47:20.897Z,98688.97
2019-01-28T11:48:21.967Z,98690.72
2019-01-28T11:49:22.881Z,98684.86
2019-01-28T11:50:23.729Z,98680.86
2019-01-28T11:51:24.587Z,98674.75
2019-01-28T11:52:25.590Z,98673.87
2019-01-28T11:53:36.379Z,98673.92
2019-01-28T11:54:48.811Z,98675.86
2019-01-28T11:55:49.810Z,98679.62
2019-01-28T11:56:50.665Z,98676.05
2019-01-28T11:57:51.558Z,98674.03
2019-01-28T11:58:52.425Z,98672.19
2019-01-28T11:59:53.311Z,98667.92
2019-01-28T12:01:03.879Z,98670.50
2019-01-28T12:02:04.739Z,98676.53
2019-01-28T12:03:05.846Z,98674.03
2019-01-28T12:04:06.733Z,98674.70
2019-01-28T12:05:07.889Z,98679.24
2019-01-28T12:06:08.749Z,98673.18
2019-01-28T12:07:09.611Z,98671.25
2019-01-28T12:08:10.509Z,98673.71
2019-01-28T12:09:11.461Z,98673.22
2019-01-28T12:10:12.333Z,98668.69
2019-01-28T12:11:13.189Z,98668.69
2019-01-28T12:12:14.351Z,98669.05
2019-01-28T12:13:15.247Z,98672.69
2019-01-28T12:14:16.112Z,98667.34
2019-01-28T12:15:18.983Z,98669.41
2019-01-28T12:16:20.840Z,98671.58